Time;durP1;ratioP1;P1;durP2;ratioP2;P2;SDS_P1;SDS_P2;PMS_P1;PMS_P2;Temp;Humidity;BMP_temperature;BMP_pressure;BME280_temperature;BME280_humidity;BME280_pressure;Samples;Min_cycle;Max_cycle;Signal;HPM_P1;HPM_P2
2022/12/18 00:02:10;;;;;;;;;65.33;46.67;;;;;-1.55;66.22;101829.16;5030844;28;45939;-54
2022/12/18 00:04:35;;;;;;;;;57.33;46.00;;;;;-1.50;66.05;101832.41;5030585;28;45353;-57
2022/12/18 00:07:01;;;;;;;;;50.67;44.00;;;;;-1.50;66.14;101836.91;5028688;28;45470;-60
2022/12/18 00:09:27;;;;;;;;;67.33;48.00;;;;;-1.48;65.90;101828.75;5032100;28;45836;-57
2022/12/18 00:11:52;;;;;;;;;57.00;46.67;;;;;-1.48;65.80;101836.81;5039394;28;46919;-57
2022/12/18 00:14:18;;;;;;;;;52.00;43.67;;;;;-1.47;65.98;101838.53;5030601;28;45763;-60
2022/12/18 00:16:44;;;;;;;;;58.00;46.67;;;;;-1.46;65.87;101833.06;5050350;28;45391;-61
2022/12/18 00:19:10;;;;;;;;;66.67;47.00;;;;;-1.48;65.63;101836.81;5050981;28;45553;-60
2022/12/18 00:21:35;;;;;;;;;57.33;47.00;;;;;-1.53;65.57;101827.25;5040799;28;46624;-56
2022/12/18 00:24:01;;;;;;;;;51.67;44.00;;;;;-1.54;65.72;101827.34;5039222;28;45885;-57
2022/12/18 00:26:31;;;;;;;;;58.00;45.67;;;;;-1.53;66.01;101834.47;5029445;28;45454;-56
2022/12/18 00:29:00;;;;;;;;;63.00;50.33;;;;;-1.74;65.69;101793.72;5030348;28;45404;-56
2022/12/18 00:31:26;;;;;;;;;75.00;52.67;;;;;-1.51;65.52;101827.13;5012516;28;45788;-59
2022/12/18 00:33:53;;;;;;;;;57.00;44.67;;;;;-1.55;65.66;101831.84;5029741;28;45351;-60
2022/12/18 00:36:20;;;;;;;;;65.33;50.67;;;;;-1.52;65.61;101837.06;5039853;28;45475;-59
2022/12/18 00:38:46;;;;;;;;;60.33;47.33;;;;;-1.48;65.77;101839.53;5050434;28;45850;-57
2022/12/18 00:41:13;;;;;;;;;56.33;46.67;;;;;-1.46;65.77;101849.22;5015409;28;45972;-52
2022/12/18 00:43:38;;;;;;;;;59.33;48.00;;;;;-1.55;65.17;101831.84;5032378;28;45459;-52
2022/12/18 00:46:04;;;;;;;;;53.00;46.33;;;;;-1.84;65.35;101797.03;5050559;28;45710;-57
2022/12/18 00:48:30;;;;;;;;;49.67;45.00;;;;;-1.49;65.30;101852.13;5036853;28;45603;-59
2022/12/18 00:50:55;;;;;;;;;58.67;41.33;;;;;-1.50;65.35;101843.19;5028663;28;46254;-58
2022/12/18 00:53:21;;;;;;;;;54.00;49.33;;;;;-1.48;65.15;101843.09;5030657;28;45823;-58
2022/12/18 00:55:46;;;;;;;;;70.67;52.00;;;;;-1.48;65.29;101835.00;5028707;28;45484;-56
2022/12/18 00:58:13;;;;;;;;;56.00;48.00;;;;;-2.12;64.92;101728.09;5030646;28;45782;-53
2022/12/18 01:00:38;;;;;;;;;53.00;43.00;;;;;-1.48;65.04;101834.13;5033771;28;46377;-56
2022/12/18 01:03:04;;;;;;;;;65.33;48.00;;;;;-1.56;64.95;101813.09;5030147;28;45807;-58
2022/12/18 01:05:29;;;;;;;;;57.33;45.00;;;;;-1.69;65.08;101802.34;5012296;28;45422;-55
2022/12/18 01:07:55;;;;;;;;;63.00;50.67;;;;;-1.52;64.93;101830.78;5042455;28;45508;-52
2022/12/18 01:10:21;;;;;;;;;60.67;45.67;;;;;-1.59;64.87;101822.28;5048586;28;46009;-60
2022/12/18 01:12:46;;;;;;;;;46.67;44.00;;;;;-1.60;64.98;101819.69;5047659;28;45832;-60
2022/12/18 01:15:12;;;;;;;;;53.67;45.67;;;;;-1.62;64.68;101816.25;5050085;28;45380;-59
2022/12/18 01:17:38;;;;;;;;;59.33;48.33;;;;;-1.60;64.58;101815.16;5049266;28;45474;-54
2022/12/18 01:20:04;;;;;;;;;54.67;44.67;;;;;-1.61;64.82;101817.97;5040331;28;45437;-53
2022/12/18 01:22:29;;;;;;;;;54.33;45.33;;;;;-1.61;64.70;101813.44;5050363;28;45616;-55
2022/12/18 01:24:55;;;;;;;;;53.00;45.33;;;;;-1.61;64.61;101810.75;5047306;28;45525;-54
2022/12/18 01:27:20;;;;;;;;;60.33;46.67;;;;;-1.66;64.81;101816.44;5050398;28;45672;-56
2022/12/18 01:29:47;;;;;;;;;56.67;47.33;;;;;-1.61;64.58;101820.66;5048642;28;45581;-55
2022/12/18 01:32:12;;;;;;;;;52.67;41.67;;;;;-1.72;64.58;101811.47;5048595;28;45855;-60
2022/12/18 01:34:38;;;;;;;;;61.00;49.00;;;;;-1.69;64.47;101819.38;5050358;28;45888;-59
2022/12/18 01:37:06;;;;;;;;;60.33;49.00;;;;;-1.68;64.66;101815.69;5041724;28;45634;-60
2022/12/18 01:39:32;;;;;;;;;50.33;44.67;;;;;-1.67;64.52;101821.94;5029780;28;46603;-55
2022/12/18 01:42:18;;;;;;;;;60.00;47.00;;;;;-1.66;64.52;101823.69;5035588;28;45548;-56
2022/12/18 01:44:58;;;;;;;;;58.00;48.33;;;;;-1.66;64.54;101818.28;5034028;28;45765;-56
2022/12/18 01:47:39;;;;;;;;;55.33;47.33;;;;;-1.70;64.29;101811.38;5056268;28;45435;-55
2022/12/18 01:50:18;;;;;;;;;64.33;51.33;;;;;-1.68;64.65;101810.31;5055955;28;45921;-59
2022/12/18 01:53:13;;;;;;;;;69.00;49.50;;;;;-1.84;64.39;101778.19;5056040;28;45448;-58
2022/12/18 01:55:59;;;;;;;;;57.67;48.33;;;;;-1.75;64.59;101791.97;5055892;28;45430;-55
2022/12/18 01:58:44;;;;;;;;;50.33;41.67;;;;;-1.70;64.30;101798.75;5055615;28;45366;-56
2022/12/18 02:01:09;;;;;;;;;66.00;51.67;;;;;-1.71;64.42;101802.44;5057660;28;45832;-57
2022/12/18 02:03:35;;;;;;;;;58.33;49.00;;;;;-1.72;64.49;101797.19;5056893;28;45383;-57
2022/12/18 02:06:09;;;;;;;;;56.67;46.67;;;;;-1.84;64.31;101788.97;5057521;28;45378;-56
2022/12/18 02:08:44;;;;;;;;;66.67;45.00;;;;;-1.72;64.43;101792.63;5041704;28;45351;-57
2022/12/18 02:11:15;;;;;;;;;66.00;47.33;;;;;-1.71;64.62;101788.13;5037008;28;46152;-57
2022/12/18 02:14:00;;;;;;;;;55.67;48.33;;;;;-1.74;64.35;101772.16;5036721;28;45441;-59
2022/12/18 02:16:31;;;;;;;;;64.33;45.33;;;;;-1.78;64.52;101777.78;5037025;28;45494;-57
2022/12/18 02:18:59;;;;;;;;;50.67;43.33;;;;;-1.98;64.78;101743.31;5037116;28;45387;-54
2022/12/18 02:21:30;;;;;;;;;60.67;49.67;;;;;-1.83;64.77;101770.97;5018997;28;47553;-57
2022/12/18 02:24:08;;;;;;;;;45.67;44.33;;;;;-1.78;64.51;101766.13;5036823;28;45317;-59
2022/12/18 02:26:37;;;;;;;;;56.33;50.67;;;;;-1.80;64.52;101762.69;5035771;28;45350;-59
2022/12/18 02:29:17;;;;;;;;;52.00;43.67;;;;;-1.79;64.55;101759.91;5035830;28;45574;-60
2022/12/18 02:31:47;;;;;;;;;55.00;42.33;;;;;-1.82;64.75;101768.19;5002433;28;47810;-60
2022/12/18 02:34:13;;;;;;;;;57.33;45.00;;;;;-1.82;64.49;101770.03;5019017;28;45487;-59
2022/12/18 02:36:40;;;;;;;;;56.67;45.33;;;;;-1.99;64.70;101747.81;5035508;28;45408;-56
2022/12/18 02:39:06;;;;;;;;;53.67;48.00;;;;;-2.07;64.61;101725.94;5019064;28;45385;-54
2022/12/18 02:41:32;;;;;;;;;65.67;49.00;;;;;-2.20;64.66;101707.06;5001685;28;45508;-58
2022/12/18 02:44:01;;;;;;;;;56.33;44.33;;;;;-1.96;64.63;101746.72;5018045;28;45408;-55
2022/12/18 02:46:34;;;;;;;;;65.33;49.00;;;;;-1.87;64.80;101762.25;5040032;28;45439;-60
2022/12/18 02:49:09;;;;;;;;;50.00;44.33;;;;;-2.20;64.53;101716.03;5056432;28;45383;-57
2022/12/18 02:51:58;;;;;;;;;56.00;44.33;;;;;-2.22;64.51;101706.31;5053997;28;47272;-59
2022/12/18 02:54:26;;;;;;;;;59.67;47.67;;;;;-2.00;64.97;101737.13;5038094;28;45416;-57
2022/12/18 02:56:55;;;;;;;;;50.33;47.00;;;;;-1.95;65.02;101743.94;5054788;28;45420;-58
2022/12/18 02:59:41;;;;;;;;;54.67;48.67;;;;;-1.99;65.12;101736.19;5054206;28;45590;-57
2022/12/18 03:02:09;;;;;;;;;58.67;48.67;;;;;-2.22;64.64;101704.50;5054645;28;46273;-58
2022/12/18 03:04:44;;;;;;;;;69.33;50.33;;;;;-2.00;64.93;101738.00;5055895;28;45386;-59
2022/12/18 03:07:18;;;;;;;;;62.00;47.67;;;;;-2.34;64.98;101668.53;5038313;28;45444;-58
2022/12/18 03:09:46;;;;;;;;;60.00;49.00;;;;;-2.29;65.16;101676.31;5039001;28;45530;-58
2022/12/18 03:12:23;;;;;;;;;60.33;48.33;;;;;-2.30;65.07;101688.00;5054365;28;45644;-55
2022/12/18 03:14:54;;;;;;;;;52.00;47.33;;;;;-2.09;64.70;101728.72;5054495;28;45323;-60
2022/12/18 03:17:20;;;;;;;;;55.00;45.33;;;;;-2.18;65.39;101727.53;5055888;28;45316;-55
2022/12/18 03:19:46;;;;;;;;;55.67;45.33;;;;;-2.34;65.28;101698.13;5054717;28;45498;-55
2022/12/18 03:22:11;;;;;;;;;50.33;40.00;;;;;-2.09;65.16;101742.19;5054358;28;48511;-56
2022/12/18 03:24:39;;;;;;;;;57.00;47.67;;;;;-2.43;65.60;101687.13;5054461;28;45305;-57
2022/12/18 03:27:07;;;;;;;;;54.00;46.33;;;;;-2.22;65.32;101735.91;5038166;28;45345;-60
2022/12/18 03:29:35;;;;;;;;;59.67;46.00;;;;;-2.19;65.40;101741.94;5054583;28;45589;-60
2022/12/18 03:32:12;;;;;;;;;58.33;45.00;;;;;-2.14;64.88;101747.00;5055465;28;46337;-56
2022/12/18 03:34:39;;;;;;;;;57.67;48.67;;;;;-2.11;65.70;101744.13;5054352;28;45417;-59
2022/12/18 03:37:05;;;;;;;;;65.33;45.33;;;;;-2.11;65.62;101741.44;5055533;28;45375;-59
2022/12/18 03:39:30;;;;;;;;;58.00;47.67;;;;;-2.13;65.41;101750.56;5054436;28;45376;-57
2022/12/18 03:41:59;;;;;;;;;62.33;48.33;;;;;-2.53;65.22;101684.19;5053792;28;46638;-55
2022/12/18 03:44:29;;;;;;;;;64.33;50.67;;;;;-2.20;65.48;101742.91;5054029;28;45389;-57
2022/12/18 03:47:11;;;;;;;;;60.33;47.00;;;;;-2.23;65.53;101742.25;5054468;28;45186;-60
2022/12/18 03:49:46;;;;;;;;;56.33;45.67;;;;;-2.47;65.50;101692.72;5009535;28;46185;-59
2022/12/18 03:52:21;;;;;;;;;57.00;47.00;;;;;-2.31;65.79;101721.25;5035215;28;45619;-58
2022/12/18 03:54:47;;;;;;;;;58.33;47.67;;;;;-2.28;65.79;101713.00;5034002;28;45404;-60
2022/12/18 03:57:20;;;;;;;;;57.00;48.67;;;;;-2.21;65.95;101718.81;5017575;28;45397;-60
2022/12/18 03:59:46;;;;;;;;;55.67;47.33;;;;;-2.30;65.65;101703.31;5017718;28;45388;-55
2022/12/18 04:02:12;;;;;;;;;58.00;48.67;;;;;-2.24;65.62;101705.56;5000959;28;47502;-57
2022/12/18 04:04:38;;;;;;;;;53.67;43.33;;;;;-2.15;65.33;101722.94;5035144;28;45360;-58
2022/12/18 04:07:03;;;;;;;;;60.00;46.67;;;;;-2.65;65.50;101621.38;5034419;28;45256;-59
2022/12/18 04:09:29;;;;;;;;;58.00;48.33;;;;;-2.45;65.05;101673.81;5053887;28;45287;-59
2022/12/18 04:11:54;;;;;;;;;59.67;48.33;;;;;-2.23;65.88;101701.91;5054102;28;45504;-59
2022/12/18 04:14:20;;;;;;;;;62.00;49.33;;;;;-2.18;66.04;101700.63;5053631;28;46333;-59
2022/12/18 04:16:45;;;;;;;;;54.33;45.67;;;;;-2.20;65.54;101707.06;5055417;28;45308;-57
2022/12/18 04:19:11;;;;;;;;;42.67;41.00;;;;;-2.26;65.37;101713.75;5054284;28;45290;-54
2022/12/18 04:21:36;;;;;;;;;62.33;49.00;;;;;-2.30;65.76;101716.75;5054912;28;45921;-57
2022/12/18 04:24:02;;;;;;;;;51.67;43.00;;;;;-2.36;66.02;101710.81;5055248;28;45503;-57
2022/12/18 04:26:27;;;;;;;;;55.67;48.33;;;;;-2.39;66.20;101708.34;5055156;28;45364;-56
2022/12/18 04:28:53;;;;;;;;;56.67;49.33;;;;;-2.42;66.14;101708.53;5055486;28;45443;-56
2022/12/18 04:31:18;;;;;;;;;62.67;46.67;;;;;-2.53;66.49;101693.13;5055287;28;45844;-58
2022/12/18 04:33:44;;;;;;;;;50.33;35.33;;;;;-2.71;66.60;101660.28;5053395;28;45495;-59
2022/12/18 04:36:09;;;;;;;;;61.67;49.67;;;;;-2.57;66.88;101701.50;5055418;28;45373;-59
2022/12/18 04:38:35;;;;;;;;;51.00;46.33;;;;;-2.59;66.39;101705.16;5053764;28;45298;-60
2022/12/18 04:41:00;;;;;;;;;49.33;43.33;;;;;-2.63;66.60;101700.06;5054854;28;45404;-57
2022/12/18 04:43:26;;;;;;;;;47.67;42.33;;;;;-2.49;67.11;101718.84;5054236;28;45282;-56
2022/12/18 04:45:52;;;;;;;;;47.67;45.00;;;;;-2.70;66.71;101683.50;5053828;28;45389;-56
2022/12/18 04:48:20;;;;;;;;;58.67;48.33;;;;;-2.41;66.42;101720.16;5054959;28;45344;-53
2022/12/18 04:50:46;;;;;;;;;61.33;44.33;;;;;-2.38;66.47;101714.56;5052901;28;45535;-54
2022/12/18 04:53:12;;;;;;;;;46.67;43.67;;;;;-2.34;66.54;101716.09;5054493;28;45466;-58
2022/12/18 04:55:37;;;;;;;;;50.33;41.00;;;;;-2.39;66.64;101715.53;5054501;28;45458;-58
2022/12/18 04:58:03;;;;;;;;;53.67;48.67;;;;;-2.44;66.88;101713.16;5054943;28;45393;-59
2022/12/18 05:00:28;;;;;;;;;65.33;47.33;;;;;-2.43;66.59;101719.38;5054305;28;45479;-58
2022/12/18 05:02:54;;;;;;;;;65.67;52.00;;;;;-2.44;66.75;101723.91;5054345;28;45380;-57
2022/12/18 05:05:20;;;;;;;;;64.00;48.33;;;;;-3.23;66.35;101592.91;5053178;28;45526;-53
2022/12/18 05:07:45;;;;;;;;;65.67;47.00;;;;;-2.48;66.41;101715.19;5050176;28;45419;-56
2022/12/18 05:10:11;;;;;;;;;60.67;47.33;;;;;-2.45;66.63;101722.19;5032787;28;48656;-54
2022/12/18 05:12:57;;;;;;;;;51.00;45.00;;;;;-2.70;66.85;101677.25;5032955;28;45333;-56
2022/12/18 05:15:24;;;;;;;;;62.67;45.00;;;;;-2.51;66.55;101726.13;5026755;28;45587;-57
2022/12/18 05:17:49;;;;;;;;;55.67;47.33;;;;;-2.61;66.63;101725.88;5032846;28;45305;-59
2022/12/18 05:20:15;;;;;;;;;49.33;41.67;;;;;-2.93;66.56;101671.56;5030729;28;46085;-60
2022/12/18 05:22:40;;;;;;;;;55.67;45.00;;;;;-2.56;67.04;101730.09;5033935;28;45371;-60
2022/12/18 05:25:06;;;;;;;;;58.00;45.33;;;;;-2.63;67.10;101725.13;5032532;28;45354;-58
2022/12/18 05:27:31;;;;;;;;;51.33;38.67;;;;;-2.66;66.88;101744.16;5036436;28;45649;-57
2022/12/18 05:29:57;;;;;;;;;62.00;45.00;;;;;-3.05;66.72;101678.63;5033498;28;45936;-56
2022/12/18 05:32:22;;;;;;;;;60.33;48.00;;;;;-2.68;66.99;101737.16;5019877;28;45434;-57
2022/12/18 05:34:48;;;;;;;;;55.67;45.00;;;;;-2.94;67.61;101704.78;5037450;28;45819;-54
2022/12/18 05:37:13;;;;;;;;;54.00;48.00;;;;;-2.63;67.48;101754.69;5036317;28;45542;-55
2022/12/18 05:39:39;;;;;;;;;53.00;45.00;;;;;-2.61;66.98;101751.91;5037233;28;46585;-56
2022/12/18 05:42:04;;;;;;;;;60.33;49.67;;;;;-2.69;66.85;101733.59;5035380;28;45452;-58
2022/12/18 05:44:30;;;;;;;;;56.00;44.33;;;;;-2.57;66.36;101747.22;5037606;28;45292;-58
2022/12/18 05:46:56;;;;;;;;;55.33;47.33;;;;;-2.92;66.37;101698.34;5036140;28;45670;-59
2022/12/18 05:49:21;;;;;;;;;50.00;44.67;;;;;-2.81;67.07;101700.34;5037421;28;46027;-57
2022/12/18 05:51:47;;;;;;;;;50.00;40.00;;;;;-2.61;66.06;101730.41;5035949;28;45457;-55
2022/12/18 05:54:12;;;;;;;;;57.33;46.00;;;;;-2.57;67.00;101729.22;5035875;28;45405;-55
2022/12/18 05:56:38;;;;;;;;;59.67;46.00;;;;;-2.56;66.61;101727.41;5037838;28;45545;-56
2022/12/18 05:59:03;;;;;;;;;52.67;45.33;;;;;-2.63;66.89;101706.31;5035078;28;45676;-55
2022/12/18 06:01:29;;;;;;;;;60.67;46.67;;;;;-2.60;66.88;101713.31;5037268;28;45475;-57
2022/12/18 06:03:55;;;;;;;;;44.00;36.33;;;;;-2.57;66.99;101707.72;5037303;28;45294;-57
2022/12/18 06:06:25;;;;;;;;;54.00;47.33;;;;;-2.50;66.71;101708.19;5019211;28;45554;-59
2022/12/18 06:08:51;;;;;;;;;62.00;48.00;;;;;-2.49;66.78;101707.22;5047772;28;45575;-58
2022/12/18 06:11:18;;;;;;;;;55.00;47.33;;;;;-2.48;66.27;101700.88;5056638;28;45317;-57
2022/12/18 06:13:43;;;;;;;;;56.00;47.67;;;;;-2.46;66.50;101698.94;5057044;28;45309;-58
2022/12/18 06:16:09;;;;;;;;;58.33;46.00;;;;;-2.46;66.49;101701.63;5057182;28;45657;-53
2022/12/18 06:18:34;;;;;;;;;46.33;43.00;;;;;-2.76;66.21;101649.84;5055356;28;46112;-57
2022/12/18 06:21:00;;;;;;;;;54.00;45.67;;;;;-2.40;66.25;101711.97;5056812;28;45195;-55
2022/12/18 06:23:25;;;;;;;;;45.67;42.00;;;;;-2.38;66.35;101709.19;5038533;28;45491;-58
2022/12/18 06:25:51;;;;;;;;;47.33;40.00;;;;;-2.45;65.93;101700.69;5056997;28;45478;-59
2022/12/18 06:28:17;;;;;;;;;51.00;47.33;;;;;-2.43;65.99;101711.31;5055310;28;46482;-58
2022/12/18 06:30:46;;;;;;;;;51.33;41.67;;;;;-2.46;65.78;101704.31;5056637;28;45344;-58
2022/12/18 06:33:11;;;;;;;;;45.33;43.33;;;;;-2.44;66.46;101710.47;5055148;28;45352;-57
2022/12/18 06:35:37;;;;;;;;;50.33;44.67;;;;;-2.50;65.83;101714.41;5057216;28;45596;-57
2022/12/18 06:38:02;;;;;;;;;57.00;44.33;;;;;-2.53;65.91;101719.13;5056565;28;46010;-58
2022/12/18 06:40:28;;;;;;;;;43.33;39.67;;;;;-2.55;66.37;101716.56;5055142;28;45428;-58
2022/12/18 06:42:53;;;;;;;;;55.33;42.67;;;;;-2.61;66.15;101708.91;5056418;28;45157;-60
2022/12/18 06:45:19;;;;;;;;;48.33;35.33;;;;;-2.86;66.17;101664.84;5056741;28;45267;-60
2022/12/18 06:47:44;;;;;;;;;47.33;43.67;;;;;-2.94;66.37;101664.50;5055003;28;45322;-60
2022/12/18 06:50:10;;;;;;;;;61.00;45.00;;;;;-2.97;66.10;101662.84;5056577;28;45269;-60
2022/12/18 06:52:36;;;;;;;;;55.67;45.67;;;;;-2.73;66.35;101708.75;5055298;28;45394;-59
2022/12/18 06:55:02;;;;;;;;;54.33;45.67;;;;;-2.67;66.58;101698.56;5056578;28;45538;-58
2022/12/18 06:57:28;;;;;;;;;53.67;44.00;;;;;-2.65;66.73;101693.94;5056066;28;46239;-57
2022/12/18 06:59:53;;;;;;;;;39.67;28.67;;;;;-2.74;66.45;101680.16;5054948;28;45342;-54
2022/12/18 07:02:19;;;;;;;;;63.00;49.00;;;;;-2.67;65.77;101690.50;5056567;28;45450;-56
2022/12/18 07:04:44;;;;;;;;;40.67;40.67;;;;;-2.77;66.50;101679.50;5056463;28;45648;-56
2022/12/18 07:07:10;;;;;;;;;57.33;45.33;;;;;-2.75;66.61;101670.38;5056120;28;46271;-60
2022/12/18 07:09:35;;;;;;;;;45.67;42.00;;;;;-2.95;66.17;101641.28;5039034;28;45420;-59
2022/12/18 07:12:01;;;;;;;;;51.67;43.33;;;;;-2.72;65.86;101675.53;5036270;28;45373;-59
2022/12/18 07:14:26;;;;;;;;;53.33;42.67;;;;;-2.69;66.11;101679.84;5034551;28;45517;-60
2022/12/18 07:16:52;;;;;;;;;53.33;44.00;;;;;-2.72;66.15;101683.59;5034635;28;46598;-58
2022/12/18 07:19:17;;;;;;;;;44.00;42.67;;;;;-3.03;66.12;101623.81;5035951;28;45363;-59
2022/12/18 07:21:43;;;;;;;;;45.33;43.67;;;;;-2.73;65.99;101672.94;5035656;28;45390;-57
2022/12/18 07:24:08;;;;;;;;;48.00;35.67;;;;;-2.72;66.29;101672.00;5036155;28;45513;-57
2022/12/18 07:26:34;;;;;;;;;46.67;38.33;;;;;-2.74;66.09;101674.78;5034218;28;45728;-58
2022/12/18 07:28:59;;;;;;;;;55.67;44.33;;;;;-3.28;65.92;101595.03;5035869;28;45260;-58
2022/12/18 07:31:25;;;;;;;;;46.00;37.00;;;;;-2.94;66.35;101654.59;5035596;28;45291;-60
2022/12/18 07:33:51;;;;;;;;;49.33;45.00;;;;;-2.74;66.04;101676.59;5034664;28;45635;-58
2022/12/18 07:36:16;;;;;;;;;42.33;37.67;;;;;-2.69;66.03;101682.53;5034372;28;46127;-61
2022/12/18 07:38:42;;;;;;;;;41.67;36.33;;;;;-2.77;66.09;101683.03;5035532;28;45383;-61
2022/12/18 07:41:11;;;;;;;;;51.33;43.67;;;;;-2.84;66.08;101684.41;5035320;28;45420;-59
2022/12/18 07:43:37;;;;;;;;;53.00;42.67;;;;;-3.15;65.94;101638.91;5034666;28;45381;-52
2022/12/18 07:46:03;;;;;;;;;61.00;46.33;;;;;-2.71;65.62;101705.97;5017270;28;45782;-55
2022/12/18 07:48:29;;;;;;;;;54.67;45.00;;;;;-3.49;65.22;101598.16;5035705;28;45397;-57
2022/12/18 07:50:59;;;;;;;;;46.00;39.67;;;;;-3.07;65.65;101672.47;5035304;28;45776;-60
2022/12/18 07:53:24;;;;;;;;;50.33;37.67;;;;;-2.86;65.20;101711.41;5034743;28;45409;-60
2022/12/18 07:56:02;;;;;;;;;53.33;43.67;;;;;-3.21;65.77;101666.16;5035260;28;45978;-58
2022/12/18 07:58:28;;;;;;;;;33.67;29.33;;;;;-3.02;65.90;101694.53;5035722;28;45245;-60
2022/12/18 08:00:53;;;;;;;;;58.00;45.00;;;;;-3.03;66.52;101690.13;5034945;28;45356;-59
2022/12/18 08:03:19;;;;;;;;;47.33;40.00;;;;;-2.96;66.22;101699.50;5010311;28;45400;-60
2022/12/18 08:05:45;;;;;;;;;42.67;39.33;;;;;-3.01;66.46;101696.25;5035192;28;45324;-60
2022/12/18 08:08:11;;;;;;;;;51.67;39.67;;;;;-3.23;65.88;101645.75;5036553;28;45483;-57
2022/12/18 08:10:37;;;;;;;;;43.67;41.33;;;;;-2.96;66.25;101688.75;5054082;28;45499;-56
2022/12/18 08:13:03;;;;;;;;;47.00;38.67;;;;;-3.01;65.88;101680.13;5055096;28;45491;-59
2022/12/18 08:15:28;;;;;;;;;46.67;40.67;;;;;-2.97;66.27;101681.66;5055219;28;45566;-58
2022/12/18 08:17:56;;;;;;;;;51.33;45.00;;;;;-2.95;66.78;101698.53;5054859;28;45371;-60
2022/12/18 08:20:22;;;;;;;;;55.00;45.00;;;;;-3.02;66.46;101694.53;5055227;28;45341;-60
2022/12/18 08:22:47;;;;;;;;;49.00;45.00;;;;;-2.91;65.77;101713.50;5054328;28;45527;-60
2022/12/18 08:25:13;;;;;;;;;50.67;44.33;;;;;-2.91;66.24;101705.44;5054831;28;46122;-60
2022/12/18 08:27:38;;;;;;;;;54.33;49.00;;;;;-2.89;66.18;101718.75;5055046;28;45386;-53
2022/12/18 08:30:04;;;;;;;;;62.33;46.00;;;;;-2.86;66.23;101716.78;5054965;28;45282;-56
2022/12/18 08:32:30;;;;;;;;;58.00;45.67;;;;;-3.05;66.10;101674.09;5055186;28;45305;-56
2022/12/18 08:34:56;;;;;;;;;50.33;39.67;;;;;-2.80;65.66;101718.19;5055005;28;46282;-56
2022/12/18 08:37:21;;;;;;;;;54.00;45.00;;;;;-2.81;65.25;101723.66;5053337;28;45799;-58
2022/12/18 08:39:47;;;;;;;;;54.67;48.00;;;;;-2.84;65.68;101713.97;5053828;28;45504;-60
2022/12/18 08:44:56;;;;;;;;;60.33;48.67;;;;;-2.78;65.75;101727.00;5054895;28;45383;-60
2022/12/18 08:47:22;;;;;;;;;43.67;39.67;;;;;-2.80;65.76;101722.69;5054334;28;45549;-61
2022/12/18 08:49:47;;;;;;;;;49.33;44.33;;;;;-2.82;65.92;101732.69;5054143;28;45479;-62
2022/12/18 08:52:13;;;;;;;;;45.67;35.00;;;;;-2.83;65.52;101730.97;5055039;28;45376;-60
2022/12/18 08:54:38;;;;;;;;;48.67;43.00;;;;;-2.78;65.85;101740.44;5054917;28;46060;-56
2022/12/18 08:57:04;;;;;;;;;53.67;44.00;;;;;-2.96;65.15;101707.56;5058439;28;45423;-55
2022/12/18 08:59:29;;;;;;;;;61.00;45.67;;;;;-2.81;65.21;101737.09;5058398;28;45519;-58
2022/12/18 09:01:55;;;;;;;;;58.33;48.00;;;;;-2.71;65.60;101740.91;5057561;28;45242;-56
2022/12/18 09:04:21;;;;;;;;;53.33;46.00;;;;;-3.02;65.48;101673.03;5058393;28;46714;-58
2022/12/18 09:06:46;;;;;;;;;63.67;48.33;;;;;-2.68;65.59;101727.25;5056893;28;45430;-58
2022/12/18 09:09:12;;;;;;;;;53.67;44.00;;;;;-2.64;65.56;101726.09;5039503;28;45323;-60
2022/12/18 09:11:37;;;;;;;;;45.00;33.67;;;;;-2.64;65.26;101715.34;5056153;28;45570;-59
2022/12/18 09:14:03;;;;;;;;;52.67;45.67;;;;;-2.70;65.62;101715.75;5057181;28;45603;-59
2022/12/18 09:16:28;;;;;;;;;49.67;42.00;;;;;-2.64;65.64;101720.72;5054495;28;45967;-60
2022/12/18 09:18:59;;;;;;;;;43.67;39.67;;;;;-2.55;65.70;101726.44;5055625;28;45481;-58
2022/12/18 09:21:25;;;;;;;;;65.67;48.00;;;;;-2.78;65.57;101689.38;5057031;28;45378;-56
2022/12/18 09:23:51;;;;;;;;;59.67;45.67;;;;;-2.50;65.90;101718.94;5058019;28;45467;-58
2022/12/18 09:26:17;;;;;;;;;42.67;39.33;;;;;-2.46;65.78;101720.44;5039937;28;45926;-60
2022/12/18 09:28:43;;;;;;;;;47.00;44.00;;;;;-2.41;65.27;101723.69;5058139;28;45198;-60
2022/12/18 09:31:08;;;;;;;;;50.00;40.67;;;;;-2.49;65.07;101709.91;5058081;28;45554;-61
2022/12/18 09:33:37;;;;;;;;;60.33;46.33;;;;;-2.62;65.36;101683.00;5057668;28;46315;-61
2022/12/18 09:36:05;;;;;;;;;54.33;45.00;;;;;-2.35;64.99;101720.59;5057791;28;45424;-60
2022/12/18 09:38:31;;;;;;;;;54.33;43.67;;;;;-2.45;65.29;101687.25;5055856;28;45378;-59
2022/12/18 09:41:19;;;;;;;;;57.33;48.67;;;;;-2.39;65.20;101692.22;5056542;28;45593;-59
2022/12/18 09:43:53;;;;;;;;;49.67;42.33;;;;;-2.32;65.19;101696.19;5024851;28;45633;-61
2022/12/18 09:46:30;;;;;;;;;56.33;43.67;;;;;-2.18;65.44;101721.31;5056476;28;45631;-60
2022/12/18 09:48:59;;;;;;;;;52.33;44.00;;;;;-2.16;64.95;101722.06;5056519;28;45554;-61
2022/12/18 09:51:27;;;;;;;;;59.67;47.00;;;;;-2.21;65.30;101718.81;5057817;28;45429;-60
2022/12/18 09:54:05;;;;;;;;;49.67;43.67;;;;;-2.19;65.32;101719.59;5057111;28;46558;-60
2022/12/18 09:56:34;;;;;;;;;62.00;46.33;;;;;-2.25;64.83;101696.63;5055882;28;45473;-61
2022/12/18 09:59:00;;;;;;;;;54.33;44.33;;;;;-2.44;65.33;101667.44;5039880;28;45418;-59
2022/12/18 10:01:27;;;;;;;;;51.67;43.00;;;;;-2.21;65.32;101702.66;5056293;28;45401;-60
2022/12/18 10:03:52;;;;;;;;;58.67;48.00;;;;;-2.09;65.55;101704.53;5056912;28;46044;-60
2022/12/18 10:06:23;;;;;;;;;58.33;44.33;;;;;-2.03;65.21;101707.75;5051150;28;45407;-61
2022/12/18 10:09:16;;;;;;;;;52.33;44.67;;;;;-2.09;65.03;101680.31;5039674;28;45351;-61
2022/12/18 10:11:47;;;;;;;;;59.33;46.00;;;;;-1.93;64.88;101693.56;5025990;28;46012;-59
2022/12/18 10:14:41;;;;;;;;;60.33;48.33;;;;;-2.11;64.83;101663.41;5056869;28;46563;-61
2022/12/18 10:17:09;;;;;;;;;57.33;48.33;;;;;-1.79;64.93;101697.13;5056897;28;45240;-59
2022/12/18 10:19:40;;;;;;;;;31.33;21.33;;;;;-1.65;64.49;101701.56;5057033;28;45357;-59
2022/12/18 10:22:20;;;;;;;;;63.00;50.00;;;;;-1.54;64.34;101696.25;5056360;28;45345;-61
2022/12/18 10:25:05;;;;;;;;;55.67;46.67;;;;;-2.33;63.58;101557.31;5055508;28;45640;-60
2022/12/18 10:27:31;;;;;;;;;55.33;45.67;;;;;-1.87;63.83;101651.91;5039497;28;45551;-60
2022/12/18 10:29:56;;;;;;;;;52.67;47.33;;;;;-1.60;64.44;101679.69;5055547;28;45352;-61
2022/12/18 10:32:29;;;;;;;;;53.67;45.00;;;;;-1.65;64.34;101663.84;5056854;28;45640;-60
2022/12/18 10:34:56;;;;;;;;;51.67;43.67;;;;;-1.50;64.25;101675.34;5054930;28;45769;-57
2022/12/18 10:37:26;;;;;;;;;51.00;48.33;;;;;-1.50;63.86;101681.59;5056469;28;45490;-60
2022/12/18 10:40:11;;;;;;;;;63.00;48.67;;;;;-1.72;64.46;101644.56;5055209;28;45401;-61
2022/12/18 10:42:36;;;;;;;;;55.67;46.00;;;;;-1.47;64.16;101674.25;5056411;28;45400;-61
2022/12/18 10:45:15;;;;;;;;;49.00;43.67;;;;;-1.25;63.92;101679.84;5037878;28;48340;-60
2022/12/18 10:47:48;;;;;;;;;63.33;48.00;;;;;-1.18;63.59;101669.47;5056508;28;45349;-60
2022/12/18 10:50:29;;;;;;;;;56.33;44.67;;;;;-1.42;63.43;101626.31;5056640;28;45420;-60
2022/12/18 10:52:59;;;;;;;;;63.00;45.67;;;;;-1.10;63.20;101668.91;5055405;28;45328;-59
2022/12/18 10:55:34;;;;;;;;;42.33;37.67;;;;;-1.12;63.77;101665.47;4994692;28;46468;-57
2022/12/18 10:58:21;;;;;;;;;58.00;46.33;;;;;-1.06;63.75;101656.06;5049204;28;45394;-60
2022/12/18 11:01:10;;;;;;;;;43.67;41.67;;;;;-1.01;63.56;101672.78;5056509;28;45363;-56
2022/12/18 11:03:45;;;;;;;;;67.33;52.33;;;;;-1.16;63.24;101637.03;5056703;28;45318;-52
2022/12/18 11:06:16;;;;;;;;;63.00;48.00;;;;;-0.98;63.30;101654.53;5054763;28;46203;-62
2022/12/18 11:08:42;;;;;;;;;65.33;51.33;;;;;-1.01;63.40;101640.44;5055475;28;45401;-59
2022/12/18 11:11:24;;;;;;;;;60.67;47.67;;;;;-0.83;63.70;101659.75;5038382;28;45347;-58
2022/12/18 11:14:02;;;;;;;;;52.00;44.67;;;;;-0.99;63.56;101627.69;5054935;28;45385;-58
2022/12/18 11:16:28;;;;;;;;;56.00;44.67;;;;;-0.77;63.25;101650.34;5048270;28;45982;-59
2022/12/18 11:18:54;;;;;;;;;62.33;48.67;;;;;-0.77;63.58;101642.25;5036716;28;45489;-53